Airfield :







YOU CAN JOIN US ON...

 
LOGIN :

Register | Disclaimer

   EN    FR    IT 

 









Legend :    VFR   Marginal VFR   IFR   Intensive IFR   Very Intensive IFR
Visi :
Ceiling :
>= 8 km
>= 3000ft
5 to 8 km
1000 to 3000 ft
1500m to 5 km
500 to 1000 ft
800 to 1500m
200 to 500 ft
< 800m
< 200 ft
Symbols :   Thunderstorms  Fog  Heavy snow  Heavy precipitations  Wind > 20 kt






- Airport Elevation : 121 ft
- IATA code : YBX


CYBX - Lourdes De Blanc Sablon

CURRENT METAR :
  • 191600Z 12005KT 15SM FEW008 BKN025 OVC033 18/17 A2969 RMK ST1SC6SC2 ST TR SLP057 DENSITY ALT 900FT

EXPIRED METARs :
  • 191500Z 13006KT 15SM FEW009 OVC034 18/16 A2971 RMK ST1SC8 ST TR SLP063 DENSITY ALT 800FT
  • 191400Z 14010KT 15SM FEW009 BKN038 19/17 A2972 RMK ST1SC6 SLP066 DENSITY ALT 800FT

TAF AMD TAF CYBX
Valid from the 19 at 15:00 until the 20 at 02:00 UTC


191510Z 1915/2002 13005KT P6SM -RA FEW012 OVC090
TEMPO 1915/1920 4SM -RA BR BKN008 OVC060
FM192000 08012KT 3SM -SHRA BR OVC006
TEMPO 1920/2002 P6SM NSW OVC010 RMK NXT FCST BY 192000Z
CZUL FIR / North America



MET'MAP, your aeronautical weather chart ! - Copyright ORBIFLY December 2007 - Disclaimer

ORBIFLY MET'MAP TEAM :

Programming & Development : Alexandra Zaïnal
Original concept : Baudouin d'Aumeries
Technical & hardware support : Manuel Goepfert
Assistance : Marc-Olivier Méhu




SOURCES & CREDITS :

   NOAA